Time;durP1;ratioP1;P1;durP2;ratioP2;P2;SDS_P1;SDS_P2;PMS_P1;PMS_P2;Temp;Humidity;BMP_temperature;BMP_pressure;BME280_temperature;BME280_humidity;BME280_pressure;Samples;Min_cycle;Max_cycle;Signal;HPM_P1;HPM_P2
2022/10/18 00:02:19;;;;;;;;;13.00;13.00;;;;;14.77;81.89;102550.84;4931472;29;9746;-69
2022/10/18 00:04:45;;;;;;;;;15.00;15.00;;;;;14.74;82.24;102556.63;4931570;29;9093;-69
2022/10/18 00:07:12;;;;;;;;;8.67;8.67;;;;;14.73;82.04;102547.66;4926872;29;9185;-69
2022/10/18 00:09:38;;;;;;;;;13.67;12.67;;;;;14.72;82.09;102547.84;4946138;28;9190;-69
2022/10/18 00:12:05;;;;;;;;;11.00;11.00;;;;;14.70;81.86;102548.00;4931672;29;9264;-69
2022/10/18 00:14:31;;;;;;;;;14.33;13.67;;;;;14.68;81.98;102544.66;4931817;29;9341;-68
2022/10/18 00:16:57;;;;;;;;;16.00;12.67;;;;;14.65;81.79;102549.56;4932658;29;10128;-69
2022/10/18 00:19:24;;;;;;;;;15.00;14.00;;;;;14.62;81.98;102544.50;4946773;28;9990;-69
2022/10/18 00:21:54;;;;;;;;;13.00;11.00;;;;;14.60;82.16;102542.00;4932730;29;9560;-69
2022/10/18 00:24:21;;;;;;;;;13.67;11.33;;;;;14.61;82.20;102537.41;4926046;29;9310;-67
2022/10/18 00:26:47;;;;;;;;;11.00;10.33;;;;;14.60;82.05;102542.00;4932572;29;9116;-68
2022/10/18 00:29:14;;;;;;;;;16.33;13.00;;;;;14.56;81.90;102538.78;4950836;29;9196;-68
2022/10/18 00:31:42;;;;;;;;;10.33;10.00;;;;;14.55;81.60;102549.81;4935125;29;9327;-66
2022/10/18 00:34:12;;;;;;;;;14.33;13.00;;;;;14.53;81.75;102546.44;4935047;29;9242;-66
2022/10/18 00:36:39;;;;;;;;;10.33;10.00;;;;;14.49;81.63;102545.94;4936098;29;9319;-67
2022/10/18 00:39:08;;;;;;;;;12.67;11.33;;;;;14.49;81.90;102550.53;4931461;29;9280;-66
2022/10/18 00:41:36;;;;;;;;;15.00;13.33;;;;;14.47;81.91;102556.09;4936825;29;10111;-66
2022/10/18 00:44:26;;;;;;;;;14.67;14.67;;;;;14.44;81.73;102551.03;4935847;29;9332;-65
2022/10/18 00:47:03;;;;;;;;;13.00;13.00;;;;;14.42;81.42;102552.22;4929903;29;9485;-66
2022/10/18 00:49:33;;;;;;;;;16.33;14.00;;;;;14.41;81.73;102558.66;4928546;29;9333;-65
2022/10/18 00:52:04;;;;;;;;;13.67;12.67;;;;;14.40;81.56;102556.97;4935952;29;9410;-65
2022/10/18 00:54:33;;;;;;;;;13.67;13.67;;;;;14.38;81.48;102561.72;4944902;29;9333;-67
2022/10/18 00:57:00;;;;;;;;;17.00;12.00;;;;;14.37;81.39;102565.47;4931146;29;9401;-66
2022/10/18 00:59:28;;;;;;;;;12.33;12.00;;;;;14.35;81.74;102561.06;4934050;29;9948;-67
2022/10/18 01:01:54;;;;;;;;;15.67;13.67;;;;;14.37;81.77;102562.75;4934933;29;9459;-66
2022/10/18 01:04:21;;;;;;;;;10.33;10.33;;;;;14.34;81.49;102562.09;4935357;29;9403;-67
2022/10/18 01:07:06;;;;;;;;;15.67;14.00;;;;;14.32;81.66;102558.69;4934614;29;9271;-66
2022/10/18 01:09:43;;;;;;;;;10.67;10.00;;;;;14.28;81.35;102572.78;4929988;29;9344;-65
2022/10/18 01:12:32;;;;;;;;;13.33;11.33;;;;;14.25;81.57;102579.38;4935458;29;9424;-67
2022/10/18 01:15:22;;;;;;;;;14.75;14.75;;;;;14.21;81.13;102580.75;4935042;29;9341;-67
2022/10/18 01:18:31;;;;;;;;;14.33;13.33;;;;;14.16;81.35;102579.59;4933275;29;9556;-66
2022/10/18 01:21:06;;;;;;;;;19.75;16.75;;;;;14.12;81.37;102576.41;4935011;29;9356;-66
2022/10/18 01:24:08;;;;;;;;;15.67;14.33;;;;;14.07;81.35;102570.69;4949846;29;9498;-67
2022/10/18 01:27:17;;;;;;;;;13.00;12.67;;;;;14.03;81.18;102569.34;4934378;29;9438;-66
2022/10/18 01:30:01;;;;;;;;;12.33;12.33;;;;;14.03;81.40;102582.88;4934586;29;9325;-66
2022/10/18 01:32:46;;;;;;;;;12.00;12.00;;;;;14.02;81.35;102564.94;4933258;29;9345;-66
2022/10/18 01:35:20;;;;;;;;;18.00;14.25;;;;;14.03;81.27;102574.75;4930563;29;9302;-66
2022/10/18 01:37:49;;;;;;;;;12.00;11.75;;;;;14.02;81.10;102568.50;4933071;29;10281;-67
2022/10/18 01:40:20;;;;;;;;;17.67;14.67;;;;;14.02;81.42;102568.50;4934578;29;9504;-67
2022/10/18 01:42:48;;;;;;;;;18.00;14.25;;;;;14.03;81.11;102574.75;4934859;29;9325;-66
2022/10/18 01:45:16;;;;;;;;;16.25;10.50;;;;;14.02;81.11;102571.22;4933324;29;9590;-66
2022/10/18 01:47:45;;;;;;;;;15.25;15.25;;;;;14.01;81.05;102576.78;4927723;29;9614;-67
2022/10/18 01:50:11;;;;;;;;;14.75;14.75;;;;;14.00;81.32;102581.34;4933059;29;9472;-67
2022/10/18 01:52:48;;;;;;;;;17.00;15.00;;;;;13.97;81.17;102575.44;4934344;29;9423;-68
2022/10/18 01:55:16;;;;;;;;;17.75;14.00;;;;;13.93;80.92;102584.94;4932867;29;9411;-66
2022/10/18 01:58:02;;;;;;;;;19.50;19.50;;;;;13.90;81.06;102582.59;4933061;29;9496;-67
2022/10/18 02:00:41;;;;;;;;;16.00;16.00;;;;;13.88;81.17;102590.88;4920047;29;9585;-67
2022/10/18 02:03:19;;;;;;;;;13.75;12.75;;;;;13.88;81.00;102577.31;4921657;29;9551;-66
2022/10/18 02:06:00;;;;;;;;;16.25;13.00;;;;;13.88;80.94;102579.19;4928981;29;9471;-66
2022/10/18 02:08:33;;;;;;;;;14.75;12.75;;;;;13.86;80.78;102579.38;4922739;29;9570;-65
2022/10/18 02:11:04;;;;;;;;;13.50;12.00;;;;;13.84;81.02;102576.81;4933387;29;9649;-65
2022/10/18 02:13:37;;;;;;;;;13.50;12.50;;;;;13.80;80.46;102574.66;4930131;29;10221;-67
2022/10/18 02:16:09;;;;;;;;;17.25;15.25;;;;;13.79;80.76;102583.78;4922878;29;9497;-67
2022/10/18 02:18:44;;;;;;;;;16.25;13.75;;;;;13.75;80.65;102580.56;4930937;29;9665;-66
2022/10/18 02:21:16;;;;;;;;;15.75;15.50;;;;;13.72;80.51;102589.03;4917422;29;9734;-66
2022/10/18 02:23:44;;;;;;;;;15.00;15.00;;;;;13.70;80.73;102587.53;4927647;29;10924;-65
2022/10/18 02:26:13;;;;;;;;;14.25;13.00;;;;;13.68;80.59;102593.09;4930905;29;9649;-66
2022/10/18 02:28:41;;;;;;;;;17.00;15.50;;;;;13.68;80.82;102587.69;4928921;29;9867;-66
2022/10/18 02:31:18;;;;;;;;;16.25;15.75;;;;;13.67;80.53;102586.00;4930999;29;9620;-65
2022/10/18 02:33:59;;;;;;;;;15.25;14.00;;;;;13.67;80.86;102586.00;4925940;29;9557;-67
2022/10/18 02:36:44;;;;;;;;;16.33;15.00;;;;;13.66;80.65;102591.59;4918235;29;9584;-66
2022/10/18 02:39:15;;;;;;;;;11.25;11.25;;;;;13.65;80.70;102593.44;4947622;28;9404;-66
2022/10/18 02:41:42;;;;;;;;;16.50;14.00;;;;;13.66;80.58;102588.91;4933525;29;9622;-67
2022/10/18 02:44:09;;;;;;;;;14.75;14.25;;;;;13.65;80.74;102590.72;4923399;29;9556;-66
2022/10/18 02:46:36;;;;;;;;;18.25;16.25;;;;;13.63;80.59;102583.81;4928735;29;9438;-66
2022/10/18 02:49:02;;;;;;;;;15.50;14.00;;;;;13.60;80.42;102593.13;4927066;29;9604;-67
2022/10/18 02:51:28;;;;;;;;;16.75;16.00;;;;;13.58;80.51;102589.75;4913796;29;9546;-64
2022/10/18 02:53:55;;;;;;;;;17.75;16.75;;;;;13.55;80.68;102588.22;4922539;29;9649;-65
2022/10/18 02:56:21;;;;;;;;;10.50;10.00;;;;;13.53;80.71;102595.69;4931170;29;9487;-66
2022/10/18 02:58:48;;;;;;;;;12.50;11.25;;;;;13.52;80.41;102598.53;4926071;29;9505;-66
2022/10/18 03:01:14;;;;;;;;;15.75;12.75;;;;;13.51;80.60;102600.41;4931515;29;9574;-67
2022/10/18 03:03:41;;;;;;;;;17.00;16.00;;;;;13.48;80.51;102595.31;4928542;29;9628;-66
2022/10/18 03:06:07;;;;;;;;;16.25;12.50;;;;;13.47;80.52;102606.31;4920145;29;9703;-66
2022/10/18 03:08:35;;;;;;;;;11.00;11.00;;;;;13.46;80.38;102591.13;4930963;29;9427;-66
2022/10/18 03:11:01;;;;;;;;;13.50;13.50;;;;;13.45;80.46;102592.13;4923242;29;9334;-67
2022/10/18 03:13:27;;;;;;;;;14.67;11.00;;;;;13.44;80.47;102593.97;4926119;29;9509;-66
2022/10/18 03:15:55;;;;;;;;;15.75;14.00;;;;;13.43;80.45;102586.03;4929076;29;9313;-66
2022/10/18 03:18:21;;;;;;;;;14.33;14.33;;;;;13.43;80.46;102586.03;4930362;29;9511;-67
2022/10/18 03:20:48;;;;;;;;;15.00;14.25;;;;;13.42;80.56;102589.78;4913960;29;10177;-66
2022/10/18 03:23:14;;;;;;;;;13.25;11.75;;;;;13.41;80.25;102594.34;4923377;29;9473;-66
2022/10/18 03:25:40;;;;;;;;;15.25;14.00;;;;;13.42;80.26;102595.19;4930427;29;9510;-69
2022/10/18 03:28:11;;;;;;;;;13.00;11.00;;;;;13.41;80.37;102598.88;4932728;29;9546;-64
2022/10/18 03:30:38;;;;;;;;;15.00;14.00;;;;;13.40;80.22;102597.19;4930619;29;9326;-68
2022/10/18 03:33:07;;;;;;;;;12.00;11.67;;;;;13.39;80.32;102600.94;4926479;29;9400;-69
2022/10/18 03:35:33;;;;;;;;;13.67;12.00;;;;;13.36;80.33;102596.69;4924863;29;9420;-69
2022/10/18 03:37:59;;;;;;;;;13.50;13.50;;;;;13.33;80.43;102586.22;4932958;29;10102;-67
2022/10/18 03:40:26;;;;;;;;;15.00;13.00;;;;;13.29;80.58;102593.84;4926410;29;9545;-68
2022/10/18 03:42:52;;;;;;;;;13.00;13.00;;;;;13.27;80.44;102590.44;4925293;29;9597;-67
2022/10/18 03:45:19;;;;;;;;;13.00;12.75;;;;;13.24;80.41;102596.19;4932073;29;9472;-67
2022/10/18 03:47:45;;;;;;;;;11.75;11.50;;;;;13.22;80.36;102600.06;4932713;29;9551;-66
2022/10/18 03:50:12;;;;;;;;;15.00;15.00;;;;;13.20;80.42;102596.66;4928975;29;9464;-66
2022/10/18 03:52:38;;;;;;;;;14.75;13.50;;;;;13.20;80.43;102597.50;4926703;29;9381;-67
2022/10/18 03:55:05;;;;;;;;;13.50;12.00;;;;;13.18;80.54;102599.53;4929951;29;9596;-66
2022/10/18 03:57:31;;;;;;;;;11.75;11.25;;;;;13.17;80.35;102597.03;4932702;29;9514;-66
2022/10/18 03:59:58;;;;;;;;;11.00;11.00;;;;;13.13;80.32;102596.50;4930466;29;9517;-66
2022/10/18 04:02:25;;;;;;;;;8.67;8.67;;;;;13.10;80.14;102591.44;4929068;29;9455;-65
2022/10/18 04:04:51;;;;;;;;;9.33;9.33;;;;;13.09;80.31;102585.19;4927738;29;9405;-66
2022/10/18 04:07:18;;;;;;;;;11.33;8.67;;;;;13.09;80.20;102592.44;4926861;29;9337;-66
2022/10/18 04:09:44;;;;;;;;;8.33;7.67;;;;;13.09;80.20;102587.03;4933815;29;9407;-67
2022/10/18 04:12:11;;;;;;;;;11.25;10.75;;;;;13.08;80.40;102602.41;4933010;29;9467;-66
2022/10/18 04:14:37;;;;;;;;;9.00;9.00;;;;;13.06;80.32;102601.72;4935784;29;9552;-67
2022/10/18 04:17:03;;;;;;;;;10.33;8.67;;;;;13.07;80.55;102597.16;4935637;29;10596;-66
2022/10/18 04:19:30;;;;;;;;;7.00;7.00;;;;;13.08;80.41;102601.53;4932833;29;9615;-67
2022/10/18 04:21:56;;;;;;;;;10.00;9.00;;;;;13.07;80.43;102597.16;4929871;29;9576;-65
2022/10/18 04:24:22;;;;;;;;;10.00;8.50;;;;;13.06;80.44;102606.28;4928263;29;9593;-67
2022/10/18 04:26:49;;;;;;;;;9.00;9.00;;;;;13.06;80.50;102595.47;4918203;29;9392;-68
2022/10/18 04:29:15;;;;;;;;;10.50;9.00;;;;;13.04;80.65;102606.44;4919521;29;10325;-66
2022/10/18 04:31:42;;;;;;;;;9.00;9.00;;;;;13.02;80.49;102600.38;4933695;29;9464;-65
2022/10/18 04:34:09;;;;;;;;;9.50;9.50;;;;;13.02;80.38;102597.66;4930297;29;9621;-68
2022/10/18 04:36:36;;;;;;;;;8.75;7.75;;;;;13.01;80.58;102605.97;4924750;29;10154;-66
2022/10/18 04:39:02;;;;;;;;;8.00;7.33;;;;;12.99;80.59;102597.16;4933073;29;9574;-66
2022/10/18 04:41:28;;;;;;;;;6.67;6.67;;;;;12.95;80.66;102598.50;4931609;29;9501;-66
2022/10/18 04:43:55;;;;;;;;;10.00;10.00;;;;;12.92;80.23;102598.81;4929566;29;9276;-65
2022/10/18 04:46:21;;;;;;;;;8.25;8.25;;;;;12.87;80.22;102597.47;4931851;29;10036;-65
2022/10/18 04:48:47;;;;;;;;;7.33;6.00;;;;;12.87;80.48;102605.56;4932134;29;9545;-65
2022/10/18 04:51:14;;;;;;;;;8.00;8.00;;;;;12.87;80.51;102602.88;4931180;28;10463;-67
2022/10/18 04:53:40;;;;;;;;;9.00;8.67;;;;;12.87;80.37;102613.69;4931171;28;9502;-66
2022/10/18 04:56:07;;;;;;;;;6.33;6.33;;;;;12.84;80.35;102614.03;4933788;29;9398;-67
2022/10/18 04:58:34;;;;;;;;;8.00;7.00;;;;;12.84;80.20;102626.69;4935304;29;9321;-66
2022/10/18 05:01:04;;;;;;;;;6.33;6.33;;;;;12.81;80.04;102627.03;4933777;29;9258;-67
2022/10/18 05:03:31;;;;;;;;;5.33;5.33;;;;;12.75;79.84;102620.41;4929773;29;9683;-68
2022/10/18 05:05:57;;;;;;;;;7.75;7.00;;;;;12.70;79.71;102617.38;4931358;29;9380;-67
2022/10/18 05:08:29;;;;;;;;;7.75;7.75;;;;;12.68;79.87;102621.22;4928489;29;9539;-67
2022/10/18 05:10:56;;;;;;;;;8.67;7.33;;;;;12.62;79.82;102617.34;4933980;29;9550;-68
2022/10/18 05:13:22;;;;;;;;;7.67;6.00;;;;;12.57;79.91;102619.69;4917216;29;9415;-68
2022/10/18 05:15:49;;;;;;;;;6.00;4.33;;;;;12.53;79.81;102619.19;4932022;29;9546;-68
2022/10/18 05:18:15;;;;;;;;;7.33;7.00;;;;;12.49;79.40;102630.47;4948826;28;9400;-66
2022/10/18 05:20:42;;;;;;;;;6.25;6.00;;;;;12.48;79.43;102636.91;4930206;29;9418;-68
2022/10/18 05:23:11;;;;;;;;;6.00;4.67;;;;;12.45;79.43;102634.50;4933221;29;9597;-67
2022/10/18 05:25:41;;;;;;;;;5.00;5.00;;;;;12.43;79.21;102633.81;4932836;29;9364;-68
2022/10/18 05:28:08;;;;;;;;;10.00;7.25;;;;;12.38;79.09;102627.03;4934154;29;9478;-68
2022/10/18 05:30:52;;;;;;;;;10.00;6.25;;;;;12.34;79.16;102625.69;4931294;29;10393;-68
2022/10/18 05:33:19;;;;;;;;;6.50;6.25;;;;;12.33;79.05;102640.19;4920471;29;9459;-68
2022/10/18 05:35:45;;;;;;;;;6.50;6.00;;;;;12.35;79.11;102653.53;4926586;29;9612;-65
2022/10/18 05:38:11;;;;;;;;;6.75;6.75;;;;;12.34;79.00;102649.13;4923218;29;9720;-68
2022/10/18 05:40:38;;;;;;;;;8.00;8.00;;;;;12.29;78.78;102648.78;4930114;29;9585;-66
2022/10/18 05:43:04;;;;;;;;;7.00;7.00;;;;;12.25;78.75;102648.25;4932652;29;9544;-67
2022/10/18 05:45:31;;;;;;;;;6.00;6.00;;;;;12.23;78.62;102638.63;4929201;29;9660;-66
2022/10/18 05:47:57;;;;;;;;;8.50;5.75;;;;;12.18;78.78;102643.66;4934572;29;9617;-69
2022/10/18 05:50:24;;;;;;;;;6.25;6.25;;;;;12.15;78.80;102658.31;4933850;29;9670;-67
2022/10/18 05:52:50;;;;;;;;;6.50;6.50;;;;;12.15;78.81;102662.88;4933671;29;9830;-66
2022/10/18 05:55:16;;;;;;;;;7.25;6.00;;;;;12.13;78.91;102663.03;4931196;29;9625;-66
2022/10/18 05:57:47;;;;;;;;;6.25;5.50;;;;;12.08;78.36;102668.09;4932304;29;9744;-67
2022/10/18 06:00:14;;;;;;;;;8.00;8.00;;;;;12.07;78.53;102669.06;4933144;29;9698;-68
2022/10/18 06:02:40;;;;;;;;;9.25;6.00;;;;;12.04;78.63;102672.94;4934082;29;9605;-68
2022/10/18 06:05:07;;;;;;;;;6.00;6.00;;;;;12.05;78.48;102671.94;4934334;29;9837;-66
2022/10/18 06:07:33;;;;;;;;;7.00;7.00;;;;;12.02;78.26;102677.66;4933918;29;9588;-67
2022/10/18 06:10:00;;;;;;;;;7.00;7.00;;;;;11.97;78.25;102688.06;4938183;29;9778;-66
2022/10/18 06:12:26;;;;;;;;;7.00;7.00;;;;;11.94;78.42;102690.25;4934448;29;9623;-67
2022/10/18 06:14:53;;;;;;;;;6.50;6.00;;;;;11.95;78.72;102690.09;4932660;29;9697;-65
2022/10/18 06:17:19;;;;;;;;;6.00;5.00;;;;;11.94;78.44;102690.25;4934086;29;9631;-67
2022/10/18 06:19:46;;;;;;;;;6.50;6.25;;;;;11.92;78.38;102694.97;4932232;29;9644;-67
2022/10/18 06:22:12;;;;;;;;;5.25;5.25;;;;;11.90;78.41;102695.09;4933090;29;9731;-68
2022/10/18 06:24:38;;;;;;;;;6.00;6.00;;;;;11.91;78.42;102698.66;4932949;29;9718;-67
2022/10/18 06:27:07;;;;;;;;;7.00;7.00;;;;;11.85;78.10;102690.19;4933487;29;10840;-68
2022/10/18 06:29:35;;;;;;;;;8.00;8.00;;;;;11.83;78.42;102692.22;4932253;29;9787;-66
2022/10/18 06:32:03;;;;;;;;;7.50;7.50;;;;;11.81;78.10;102696.88;4933281;29;9646;-68
2022/10/18 06:34:30;;;;;;;;;7.50;7.50;;;;;11.82;78.40;102700.41;4932683;29;9739;-69
2022/10/18 06:36:56;;;;;;;;;5.00;5.00;;;;;11.95;82.06;102713.50;4933597;29;9777;-67
2022/10/18 06:39:24;;;;;;;;;7.50;6.75;;;;;11.99;79.14;102707.69;4917405;29;9568;-66
2022/10/18 06:41:51;;;;;;;;;10.00;10.00;;;;;11.93;78.11;102702.91;4929221;29;10386;-68
2022/10/18 06:44:19;;;;;;;;;7.50;7.50;;;;;11.89;78.39;102717.69;4931086;29;9950;-67
2022/10/18 06:46:47;;;;;;;;;7.25;7.25;;;;;11.89;78.37;102725.81;4930366;28;9713;-66
2022/10/18 06:49:14;;;;;;;;;9.00;7.75;;;;;11.88;78.20;102724.13;4931758;29;9681;-68
2022/10/18 06:51:45;;;;;;;;;8.00;8.00;;;;;11.83;78.11;102715.66;4921811;29;9792;-67
2022/10/18 06:54:11;;;;;;;;;9.00;9.00;;;;;11.81;78.20;102731.94;4917843;29;9796;-68
2022/10/18 06:56:43;;;;;;;;;9.00;7.75;;;;;11.83;78.32;102721.88;4929521;29;9691;-68
2022/10/18 06:59:10;;;;;;;;;8.75;8.00;;;;;11.82;78.18;102725.53;4930091;29;9890;-68
2022/10/18 07:01:36;;;;;;;;;8.00;8.00;;;;;11.83;78.30;102724.59;4928797;29;9729;-68
2022/10/18 07:04:03;;;;;;;;;11.75;8.25;;;;;11.85;78.70;102727.97;4932407;29;9728;-67
2022/10/18 07:06:29;;;;;;;;;9.50;7.25;;;;;11.89;78.42;102731.19;4932601;29;9681;-67
2022/10/18 07:08:56;;;;;;;;;11.00;9.25;;;;;11.94;78.57;102736.13;4932291;29;9726;-67
2022/10/18 07:11:25;;;;;;;;;7.50;7.50;;;;;11.97;78.56;102749.31;4931352;29;10307;-66
2022/10/18 07:13:53;;;;;;;;;9.50;9.50;;;;;11.98;78.36;102746.44;4932318;29;9822;-67
2022/10/18 07:16:19;;;;;;;;;13.50;11.75;;;;;11.99;78.37;102748.16;4932088;29;9718;-67
2022/10/18 07:18:49;;;;;;;;;9.50;9.50;;;;;12.00;78.51;102741.75;4932501;29;9736;-68
2022/10/18 07:21:20;;;;;;;;;10.00;9.25;;;;;12.02;78.57;102742.41;4922103;29;9602;-68
2022/10/18 07:23:48;;;;;;;;;9.00;8.50;;;;;12.04;78.66;102743.13;4923872;29;9750;-68
2022/10/18 07:26:18;;;;;;;;;9.25;9.25;;;;;12.10;79.53;102747.88;4929233;29;9610;-69
2022/10/18 07:28:48;;;;;;;;;8.00;8.00;;;;;12.22;79.84;102748.47;4925300;29;9717;-68
2022/10/18 07:31:15;;;;;;;;;11.25;9.00;;;;;12.47;81.44;102745.94;4929715;29;9688;-68
2022/10/18 07:33:42;;;;;;;;;10.00;9.00;;;;;12.62;80.04;102749.72;4931155;29;9701;-68
2022/10/18 07:36:10;;;;;;;;;11.00;9.50;;;;;12.61;78.93;102743.47;4928884;29;9752;-68
2022/10/18 07:38:37;;;;;;;;;5.00;5.00;;;;;12.60;78.84;102759.88;4914116;29;9551;-68
2022/10/18 07:41:06;;;;;;;;;5.33;5.33;;;;;12.62;78.84;102760.53;4926560;29;9548;-67
2022/10/18 07:43:33;;;;;;;;;5.67;5.67;;;;;12.65;78.80;102762.94;4925711;29;9335;-68
2022/10/18 07:46:02;;;;;;;;;8.25;8.25;;;;;12.67;78.80;102766.28;4926561;29;9506;-68
2022/10/18 07:48:29;;;;;;;;;10.25;9.00;;;;;12.69;78.89;102756.19;4926375;29;9469;-68
2022/10/18 07:51:00;;;;;;;;;5.00;5.00;;;;;12.73;78.99;102765.66;4931699;29;9501;-68
2022/10/18 07:53:27;;;;;;;;;8.00;7.50;;;;;12.78;79.01;102771.44;4928893;29;9350;-68
2022/10/18 07:56:02;;;;;;;;;5.00;5.00;;;;;12.85;79.18;102763.53;4931279;29;9476;-67
2022/10/18 07:58:34;;;;;;;;;3.67;3.67;;;;;12.93;79.16;102760.88;4925414;29;9339;-68
2022/10/18 08:01:02;;;;;;;;;6.33;6.33;;;;;13.00;79.12;102764.59;4929102;29;9410;-68
2022/10/18 08:03:29;;;;;;;;;6.00;6.00;;;;;13.10;79.26;102769.88;4931472;29;9321;-67
2022/10/18 08:05:56;;;;;;;;;6.00;5.33;;;;;13.17;79.34;102781.75;4928801;29;9427;-68
2022/10/18 08:08:24;;;;;;;;;3.00;3.00;;;;;13.25;79.09;102778.25;4931719;29;9282;-68
2022/10/18 08:10:50;;;;;;;;;7.33;7.33;;;;;13.30;79.10;102778.59;4930883;29;9413;-67
2022/10/18 08:13:17;;;;;;;;;6.67;6.33;;;;;13.31;79.27;102769.47;4922439;29;9394;-68
2022/10/18 08:15:43;;;;;;;;;8.00;6.67;;;;;13.36;79.55;102769.81;4928951;29;9406;-69
2022/10/18 08:18:11;;;;;;;;;6.00;6.00;;;;;13.42;79.74;102774.56;4930923;29;9284;-69
2022/10/18 08:20:42;;;;;;;;;5.00;5.00;;;;;13.51;79.74;102783.53;4930911;29;9184;-68
2022/10/18 08:23:09;;;;;;;;;8.00;5.00;;;;;13.59;79.75;102780.84;4931718;29;9336;-68
2022/10/18 08:25:35;;;;;;;;;8.33;6.00;;;;;13.63;79.60;102779.50;4930181;29;9197;-69
2022/10/18 08:28:06;;;;;;;;;4.00;4.00;;;;;13.70;79.60;102787.81;4929172;29;9186;-68
2022/10/18 08:30:34;;;;;;;;;5.67;5.00;;;;;13.72;79.40;102774.94;4924964;29;9200;-69
2022/10/18 08:33:01;;;;;;;;;6.00;6.00;;;;;13.71;79.43;102771.38;4929739;29;9927;-69
2022/10/18 08:35:27;;;;;;;;;5.00;5.00;;;;;13.74;79.55;102786.47;4931895;29;9262;-69
2022/10/18 08:37:54;;;;;;;;;4.33;4.33;;;;;13.78;79.61;102785.13;4930829;29;9125;-69
2022/10/18 08:40:20;;;;;;;;;3.00;3.00;;;;;13.83;79.71;102790.84;4930827;29;9019;-69
2022/10/18 08:43:08;;;;;;;;;4.00;4.00;;;;;13.87;79.32;102797.63;4928703;29;9002;-68
2022/10/18 08:45:37;;;;;;;;;4.67;4.67;;;;;13.90;79.11;102797.31;4927606;29;9195;-68
2022/10/18 08:48:37;;;;;;;;;5.67;5.00;;;;;13.93;79.44;102799.66;4929847;29;9029;-69
2022/10/18 08:51:13;;;;;;;;;5.00;4.00;;;;;13.97;79.16;102802.88;4934837;29;9031;-67
2022/10/18 08:53:55;;;;;;;;;5.33;4.00;;;;;14.00;79.29;102802.53;4935685;29;9184;-67
2022/10/18 08:56:23;;;;;;;;;4.33;3.00;;;;;14.03;79.22;102810.34;4922927;29;8934;-67
2022/10/18 08:58:49;;;;;;;;;5.00;4.67;;;;;14.06;79.08;102807.28;4929253;29;8965;-67
2022/10/18 09:01:30;;;;;;;;;3.00;3.00;;;;;14.10;79.06;102805.94;4930222;29;9027;-68
2022/10/18 09:04:31;;;;;;;;;4.00;2.00;;;;;14.16;78.75;102816.09;4932768;29;9758;-69
2022/10/18 09:07:09;;;;;;;;;2.00;2.00;;;;;14.21;78.50;102812.84;4919980;29;8836;-67
2022/10/18 09:09:46;;;;;;;;;1.00;0.75;;;;;14.22;77.98;102810.00;4947372;28;9020;-67
2022/10/18 09:12:41;;;;;;;;;0.75;0.75;;;;;14.26;77.50;102814.06;4934651;29;9518;-67
2022/10/18 09:15:15;;;;;;;;;1.25;1.25;;;;;14.28;77.36;102822.84;4930671;29;8899;-68
2022/10/18 09:18:27;;;;;;;;;2.25;1.75;;;;;14.33;77.35;102822.31;4929434;29;9569;-68
2022/10/18 09:20:58;;;;;;;;;2.00;1.75;;;;;14.38;77.12;102822.69;4904860;29;8895;-68
2022/10/18 09:23:46;;;;;;;;;2.00;2.00;;;;;14.39;76.76;102820.81;4934433;29;8877;-67
2022/10/18 09:26:23;;;;;;;;;0.75;0.75;;;;;14.37;75.95;102822.84;4933931;29;8837;-67
2022/10/18 09:29:13;;;;;;;;;0.00;0.00;;;;;14.41;76.06;102824.19;4923544;29;8876;-68
2022/10/18 09:31:59;;;;;;;;;2.00;2.00;;;;;14.46;75.57;102829.94;4932824;29;8873;-67
2022/10/18 09:34:41;;;;;;;;;1.25;1.25;;;;;14.45;75.35;102831.81;4932245;29;8849;-68
2022/10/18 09:37:15;;;;;;;;;0.00;0.00;;;;;14.47;75.12;102834.34;4933281;29;8853;-68
2022/10/18 09:39:42;;;;;;;;;0.00;0.00;;;;;14.54;74.53;102844.38;4932520;29;9611;-67
2022/10/18 09:42:34;;;;;;;;;1.75;0.50;;;;;14.55;74.24;102843.34;4931093;29;8865;-67
2022/10/18 09:45:07;;;;;;;;;0.00;0.00;;;;;14.60;74.01;102840.13;4932663;29;9591;-67
2022/10/18 09:47:39;;;;;;;;;0.75;0.75;;;;;14.63;74.02;102834.38;4932051;29;8833;-67
2022/10/18 09:50:37;;;;;;;;;1.00;1.00;;;;;14.64;73.30;102844.19;4926532;29;8873;-65
2022/10/18 09:53:10;;;;;;;;;0.00;0.00;;;;;14.70;73.33;102845.34;4932364;29;9573;-67
2022/10/18 09:55:58;;;;;;;;;0.00;0.00;;;;;14.74;72.92;102852.09;4933917;29;8922;-66
2022/10/18 09:58:30;;;;;;;;;0.00;0.00;;;;;14.76;72.24;102845.50;4933509;29;8867;-65
2022/10/18 10:00:58;;;;;;;;;0.00;0.00;;;;;14.77;72.37;102855.31;4933306;29;8865;-69
2022/10/18 10:03:24;;;;;;;;;0.00;0.00;;;;;14.78;71.78;102859.72;4933873;29;8861;-65
2022/10/18 10:06:14;;;;;;;;;0.00;0.00;;;;;14.79;71.13;102857.88;4931527;29;9553;-66
2022/10/18 10:08:43;;;;;;;;;0.00;0.00;;;;;14.82;71.26;102858.34;4933076;29;9640;-66
2022/10/18 10:11:31;;;;;;;;;0.00;0.00;;;;;14.86;70.95;102861.56;4931579;29;9478;-65
2022/10/18 10:14:29;;;;;;;;;1.75;1.00;;;;;14.87;69.78;102862.41;4930518;29;8860;-67
2022/10/18 10:16:57;;;;;;;;;0.00;0.00;;;;;14.88;68.96;102869.56;4913035;29;8980;-65
2022/10/18 10:19:36;;;;;;;;;0.25;0.00;;;;;14.87;69.26;102863.28;4931254;29;8849;-65
2022/10/18 10:22:07;;;;;;;;;0.00;0.00;;;;;14.89;69.25;102854.97;4931512;29;8873;-66
2022/10/18 10:24:46;;;;;;;;;2.25;0.00;;;;;14.92;69.60;102860.06;4927909;29;8875;-66
2022/10/18 10:27:33;;;;;;;;;1.00;0.00;;;;;14.95;69.15;102865.09;4923434;29;8991;-68
2022/10/18 10:30:01;;;;;;;;;0.00;0.00;;;;;14.97;69.64;102868.50;4922410;29;8841;-67
2022/10/18 10:32:46;;;;;;;;;0.50;0.50;;;;;14.93;69.43;102870.72;4931511;29;8849;-67
2022/10/18 10:35:34;;;;;;;;;0.00;0.00;;;;;14.93;69.00;102861.75;4920784;29;8833;-67
2022/10/18 10:38:24;;;;;;;;;1.00;0.00;;;;;15.00;69.43;102869.00;4927660;29;8867;-67
2022/10/18 10:40:51;;;;;;;;;0.00;0.00;;;;;15.03;69.40;102876.81;4930167;29;8909;-68
2022/10/18 10:43:35;;;;;;;;;0.00;0.00;;;;;15.09;69.59;102880.66;4928404;29;8861;-68
2022/10/18 10:46:08;;;;;;;;;0.00;0.00;;;;;15.14;69.30;102869.28;4931620;29;8853;-68
2022/10/18 10:48:45;;;;;;;;;1.00;0.25;;;;;15.08;68.84;102873.56;4932785;29;9605;-69
2022/10/18 10:51:13;;;;;;;;;0.00;0.00;;;;;15.05;67.60;102873.91;4927799;29;8857;-67
2022/10/18 10:53:57;;;;;;;;;1.00;0.00;;;;;15.13;67.15;102875.75;4927364;29;9557;-68
2022/10/18 10:56:30;;;;;;;;;0.00;0.00;;;;;15.15;67.02;102873.69;4930877;29;8833;-67
2022/10/18 10:59:17;;;;;;;;;0.00;0.00;;;;;15.11;66.64;102873.22;4929257;29;8852;-67
2022/10/18 11:01:46;;;;;;;;;0.50;0.00;;;;;15.14;66.57;102883.69;4927264;29;8861;-67
2022/10/18 11:04:28;;;;;;;;;0.75;0.75;;;;;15.09;66.05;102886.09;4931654;29;8846;-68
2022/10/18 11:07:05;;;;;;;;;0.00;0.00;;;;;15.11;66.61;102875.06;4930224;29;9576;-68
2022/10/18 11:09:49;;;;;;;;;0.75;0.00;;;;;15.18;66.07;102879.63;4932414;29;8876;-68
2022/10/18 11:12:38;;;;;;;;;0.00;0.00;;;;;15.25;66.52;102894.19;4930851;29;8865;-68
2022/10/18 11:15:19;;;;;;;;;0.00;0.00;;;;;15.31;66.18;102898.91;4929640;29;8868;-71
2022/10/18 11:18:09;;;;;;;;;0.00;0.00;;;;;15.35;65.57;102891.25;4931526;29;8860;-67
2022/10/18 11:20:46;;;;;;;;;2.50;0.00;;;;;15.38;65.81;102899.03;4926939;29;8868;-67
2022/10/18 11:23:14;;;;;;;;;1.25;0.00;;;;;15.38;66.25;102898.22;4930891;29;8880;-67
2022/10/18 11:25:59;;;;;;;;;1.50;0.00;;;;;15.39;66.31;102903.44;4931710;29;8830;-67
2022/10/18 11:28:35;;;;;;;;;1.25;0.25;;;;;15.39;66.21;102902.59;4927215;29;9548;-66
2022/10/18 11:31:13;;;;;;;;;0.00;0.00;;;;;15.42;65.91;102900.38;4931249;29;8849;-66
2022/10/18 11:33:57;;;;;;;;;0.75;0.00;;;;;15.47;66.50;102902.56;4932765;29;8841;-66
2022/10/18 11:36:58;;;;;;;;;0.00;0.00;;;;;15.41;66.80;102893.28;4932449;29;8841;-67
2022/10/18 11:39:53;;;;;;;;;0.00;0.00;;;;;15.45;66.65;102899.19;4924258;28;8844;-68
2022/10/18 11:42:32;;;;;;;;;0.00;0.00;;;;;15.53;65.85;102901.88;4933461;28;8855;-67
2022/10/18 11:45:26;;;;;;;;;0.25;0.00;;;;;15.56;65.81;102896.94;4929193;29;8853;-68
2022/10/18 11:48:01;;;;;;;;;0.25;0.25;;;;;15.53;65.93;102904.59;4927889;29;8849;-68
2022/10/18 11:51:12;;;;;;;;;0.00;0.00;;;;;15.59;65.84;102904.72;4930202;29;8860;-68